LFOT/TUF METAR and TAF weather

Enter ICAO airport designator
Station Type Date Time Source
LFOT METAR 2019/10/21 23:00 UTC NOAA

LFOT 212300Z AUTO VRB01KT CAVOK 07/07 Q1022 TEMPO 0500 FG BKN002


Station Type Date Time Source
LFOT Decoded METAR 2019/10/21 23:00 UTC NOAA

Tours, France (LFOT) 47-27N 000-43E 112M
Oct 21, 2019 - 07:00 PM EDT / 2019.10.21 2300 UTC
Wind: Variable at 1 MPH (1 KT):0
Visibility: greater than 7 mile(s):0
Temperature: 44 F (7 C)
Dew Point: 44 F (7 C)
Relative Humidity: 100%
Pressure (altimeter): 30.18 in. Hg (1022 hPa)
ob: LFOT 212300Z AUTO VRB01KT CAVOK 07/07 Q1022 TEMPO 0500 FG BKN002
cycle: 23

Station Type Date Time Source
LFOT TAF 2019/10/21 18:21 UTC NOAA

TAF TAF LFOT 211700Z 2118/2218 VRB03KT CAVOK
BECMG 2120/2122 3000 BR
TEMPO 2120/2210 1200 BR PROB40
TEMPO 2200/2208 0500 FG BKN002
BECMG 2204/2206 04006KT
TEMPO 2216/2218 -RA BKN030

Example: see airport list